Main page
METAR-TAF:

METAR-TAF

Airports :

Leuchars Station

Leuchars, Scotland

latitude: 56-23N, longitude: 002-52W, elevation: 12 m

Current weather observation

The report was made 36 minutes ago, at 20:50 UTC
Wind 3 kt from the West/Northwest
Temperature 2°C
Humidity 69%
Pressure 1023 hPa
Visibility 10 km or more
no clouds below 1500 m and no cumulonimbus

METAR: EGQL 112050Z 29003KT CAVOK 02/M03 Q1023 BLU

Time: 22:26 (21:26 UTC)

Forecast

The report was made 2 hours and 17 minutes ago, at 19:09 UTC
Forecast valid from 11 at 21 UTC to 12 at 06 UTC
Wind 4 kt from variable directions
Visibility 10 km or more
Scattered clouds at a height of 4000 ft

TAF: EGQL 111909Z 1121/1206 VRB04KT 9999 SCT040

Weather observations and forecasts of more than 4000 airports (METAR and TAF reports).

The available stations are represented by yellow and red dots on the map.

Hover mouse over dot to see the name of the station.

Then click to see weather observations and forecasts.

To change the map : click on the green buttons with a black cross to zoom in, on the green button with a dash to zoom out, or on the green arrows for adjacent maps.


METAR-TAF: